Time;durP1;ratioP1;P1;durP2;ratioP2;P2;SDS_P1;SDS_P2;PMS_P1;PMS_P2;Temp;Humidity;BMP_temperature;BMP_pressure;BME280_temperature;BME280_humidity;BME280_pressure;Samples;Min_cycle;Max_cycle;Signal;HPM_P1;HPM_P2
2023/10/14 00:04:30;;;;;;;21.48;8.65;;;;;;;1.92;85.56;101030.34;10333876;28;20073;-76
2023/10/14 00:09:36;;;;;;;24.67;8.45;;;;;;;1.84;85.73;101012.47;10333509;28;20434;-76
2023/10/14 00:14:37;;;;;;;25.92;8.38;;;;;;;1.85;85.33;101026.38;10333943;28;20429;-76
2023/10/14 00:19:38;;;;;;;27.27;10.50;;;;;;;1.48;85.40;100990.22;10332846;28;20038;-76
2023/10/14 00:24:39;;;;;;;20.52;9.65;;;;;;;1.68;85.29;101028.28;10333266;28;20053;-76
2023/10/14 00:29:41;;;;;;;19.50;8.95;;;;;;;1.55;85.64;101024.72;10334053;28;20035;-77
2023/10/14 00:34:42;;;;;;;16.88;7.35;;;;;;;1.60;85.71;101033.16;10332799;28;20045;-77
2023/10/14 00:39:43;;;;;;;14.52;5.55;;;;;;;1.72;85.77;101034.16;10332152;28;20093;-76
2023/10/14 00:44:44;;;;;;;11.65;5.15;;;;;;;1.82;85.74;101041.38;10331720;28;20050;-77
2023/10/14 00:49:45;;;;;;;17.13;5.68;;;;;;;1.80;86.16;101032.75;10332232;28;20074;-76
2023/10/14 00:59:50;;;;;;;13.63;5.45;;;;;;;1.83;86.29;101036.97;10331735;28;20409;-76
2023/10/14 01:04:53;;;;;;;16.50;6.00;;;;;;;1.73;85.80;101038.47;10331528;28;20046;-76
2023/10/14 01:09:54;;;;;;;13.85;6.13;;;;;;;1.60;86.10;101030.53;10331762;28;20513;-76
2023/10/14 01:14:59;;;;;;;21.73;6.70;;;;;;;1.14;85.74;100976.56;10331967;28;20035;-76
2023/10/14 01:25:19;;;;;;;13.52;6.72;;;;;;;1.47;86.10;101050.53;10330554;28;20441;-75
2023/10/14 01:30:25;;;;;;;19.13;7.60;;;;;;;1.10;85.82;101010.84;10331334;28;20042;-76
2023/10/14 01:40:36;;;;;;;28.70;7.93;;;;;;;1.18;85.78;101050.50;10330734;28;20066;-75
2023/10/14 01:46:15;;;;;;;22.17;7.65;;;;;;;0.97;86.22;101010.72;10331328;28;20521;-75
2023/10/14 01:51:05;;;;;;;21.70;8.38;;;;;;;1.27;86.16;101057.78;10330761;28;20055;-76
2023/10/14 01:56:06;;;;;;;20.77;7.82;;;;;;;1.16;86.03;101049.72;10331679;28;20058;-77
2023/10/14 02:06:16;;;;;;;13.63;6.72;;;;;;;1.00;85.96;101046.34;10330196;28;20038;-77
2023/10/14 02:11:21;;;;;;;18.90;8.40;;;;;;;0.63;86.61;100999.63;10330720;28;20034;-76
2023/10/14 02:16:25;;;;;;;22.55;8.40;;;;;;;1.19;85.96;101082.72;10328309;28;20482;-76
2023/10/14 02:21:31;;;;;;;23.45;8.27;;;;;;;0.82;86.38;101017.69;10305967;28;20046;-76
2023/10/14 02:26:33;;;;;;;28.90;8.35;;;;;;;0.88;86.67;101027.81;10337458;28;20038;-76
2023/10/14 02:31:38;;;;;;;33.25;8.52;;;;;;;1.13;86.71;101078.69;10337261;28;20042;-76
2023/10/14 02:36:48;;;;;;;28.23;8.65;;;;;;;0.81;87.16;101015.19;10331962;28;20491;-77
2023/10/14 02:47:05;;;;;;;18.83;7.72;;;;;;;1.22;87.11;101080.78;10296040;28;20435;-76
2023/10/14 02:52:09;;;;;;;53.80;8.98;;;;;;;1.21;86.61;101078.25;10295884;28;20066;-77
2023/10/14 03:02:25;;;;;;;42.97;8.50;;;;;;;1.16;86.40;101083.75;10296570;28;20021;-75
2023/10/14 03:07:31;;;;;;;46.75;8.63;;;;;;;1.26;87.06;101089.31;10296044;28;20050;-76
2023/10/14 03:12:35;;;;;;;60.42;9.65;;;;;;;1.27;86.33;101091.81;10296205;28;20592;-75
2023/10/14 03:17:40;;;;;;;23.88;7.75;;;;;;;0.86;86.69;101029.66;10297614;28;20090;-77
2023/10/14 03:22:44;;;;;;;42.25;8.65;;;;;;;0.88;86.21;101046.09;10344401;28;20129;-77
2023/10/14 03:27:45;;;;;;;60.15;9.27;;;;;;;0.85;86.66;101029.75;10360767;28;20130;-77
2023/10/14 03:32:46;;;;;;;35.10;8.02;;;;;;;1.40;86.86;101110.25;10376098;28;20050;-76
2023/10/14 03:37:54;;;;;;;37.08;8.00;;;;;;;1.48;86.71;101115.91;10373446;28;20409;-76
2023/10/14 03:42:54;;;;;;;32.60;7.72;;;;;;;1.34;86.67;101061.72;10354764;28;20517;-76
2023/10/14 03:48:00;;;;;;;64.40;9.48;;;;;;;2.19;86.84;101111.63;10334615;28;20058;-76
2023/10/14 03:53:01;;;;;;;33.08;8.27;;;;;;;2.81;86.37;101113.81;10334624;28;20054;-76
2023/10/14 03:58:04;;;;;;;32.92;10.43;;;;;;;3.33;85.67;101118.28;10335098;28;20038;-76
2023/10/14 04:03:13;;;;;;;24.03;10.43;;;;;;;3.65;84.48;101113.50;10334171;28;20045;-77
2023/10/14 04:08:13;;;;;;;47.63;10.63;;;;;;;3.94;83.26;101114.09;10343569;28;20050;-76
2023/10/14 04:13:15;;;;;;;36.40;9.68;;;;;;;3.94;82.32;101077.31;10336285;28;20042;-76
2023/10/14 04:18:23;;;;;;;15.68;6.97;;;;;;;4.40;81.59;101124.03;10326491;28;20448;-77
2023/10/14 04:23:28;;;;;;;34.33;6.85;;;;;;;4.58;80.64;101146.41;10327238;28;20125;-76
2023/10/14 04:28:31;;;;;;;13.20;5.05;;;;;;;4.75;80.09;101145.19;10317851;28;20041;-77
2023/10/14 04:33:36;;;;;;;24.45;5.85;;;;;;;4.39;80.13;101066.25;10350208;28;20044;-77
2023/10/14 04:38:38;;;;;;;14.45;5.60;;;;;;;4.31;79.23;101051.06;10341391;28;20108;-76
2023/10/14 04:48:59;;;;;;;12.35;6.10;;;;;;;5.39;77.80;101144.88;10337351;28;20042;-76
2023/10/14 04:54:00;;;;;;;16.73;5.32;;;;;;;5.63;77.59;101151.91;10307026;28;20482;-77
2023/10/14 04:59:05;;;;;;;16.08;6.30;;;;;;;5.94;77.00;101150.44;10328040;28;20054;-76
2023/10/14 05:04:08;;;;;;;16.13;5.93;;;;;;;6.31;75.95;101153.69;10324743;28;20058;-76
2023/10/14 05:09:25;;;;;;;18.17;6.60;;;;;;;6.69;75.12;101160.34;10331222;28;20549;-71
2023/10/14 05:14:38;;;;;;;15.43;5.13;;;;;;;7.06;73.50;101167.97;10327762;28;20054;-78
2023/10/14 05:19:41;;;;;;;15.55;6.22;;;;;;;6.91;72.98;101087.31;10311307;28;20090;-85
2023/10/14 05:24:52;;;;;;;11.25;5.50;;;;;;;7.60;71.45;101168.78;10320966;28;20062;-79
2023/10/14 05:29:53;;;;;;;24.77;7.05;;;;;;;7.85;71.50;101164.94;10328754;28;20050;-73
2023/10/14 05:34:53;;;;;;;27.55;6.90;;;;;;;8.39;70.82;101169.13;10311556;28;20030;-77
2023/10/14 05:39:54;;;;;;;13.88;6.05;;;;;;;8.90;69.50;101166.34;10307813;28;20045;-78
2023/10/14 05:44:58;;;;;;;14.73;5.82;;;;;;;9.10;68.60;101171.69;10307698;28;20043;-73
2023/10/14 05:49:59;;;;;;;11.20;5.10;;;;;;;9.39;67.64;101134.53;10306138;28;20121;-87
2023/10/14 05:55:01;;;;;;;8.93;4.57;;;;;;;9.82;66.39;101152.66;10299559;28;20113;-87
2023/10/14 06:00:12;;;;;;;11.75;4.63;;;;;;;10.07;65.26;101150.31;10297554;28;20039;-81
2023/10/14 06:05:13;;;;;;;11.13;4.97;;;;;;;10.48;63.97;101148.25;10312538;28;21831;-90
2023/10/14 06:10:22;;;;;;;12.80;5.38;;;;;;;10.81;63.11;101164.56;10333075;28;20508;-84
2023/10/14 06:15:25;;;;;;;11.07;5.07;;;;;;;11.06;61.61;101125.75;10338123;28;20042;-86
2023/10/14 06:20:26;;;;;;;13.75;4.38;;;;;;;11.83;60.14;101161.47;10337414;28;20041;-77
2023/10/14 06:25:29;;;;;;;9.77;4.75;;;;;;;12.24;58.87;101140.44;10348633;28;20050;-75
2023/10/14 06:30:30;;;;;;;15.70;5.35;;;;;;;12.39;57.47;101095.38;10378089;28;20041;-75
2023/10/14 06:35:34;;;;;;;20.50;5.30;;;;;;;12.86;57.93;101134.81;10372248;28;20045;-75
2023/10/14 06:40:42;;;;;;;16.05;4.30;;;;;;;13.28;55.58;101139.22;10385326;28;20056;-76
2023/10/14 06:45:42;;;;;;;9.43;3.97;;;;;;;13.77;55.28;101113.34;10339745;28;20053;-75
2023/10/14 06:50:47;;;;;;;18.65;4.80;;;;;;;14.06;54.05;101115.44;10336901;28;20045;-76
2023/10/14 06:55:49;;;;;;;;;;;;;;;14.52;55.61;101117.47;10336269;28;20065;-76
2023/10/14 07:00:50;;;;;;;14.38;4.53;;;;;;;14.62;53.16;101104.69;10335348;28;19921;-76
2023/10/14 07:05:56;;;;;;;8.40;4.03;;;;;;;14.93;52.24;101096.66;10335955;28;20042;-76
2023/10/14 07:11:00;;;;;;;16.85;4.25;;;;;;;15.39;51.24;101118.03;10335969;28;20038;-75
2023/10/14 07:16:08;;;;;;;14.95;4.43;;;;;;;15.77;49.30;101110.00;10335838;28;20049;-75
2023/10/14 07:21:12;;;;;;;23.85;5.53;;;;;;;15.87;49.76;101051.63;10335509;28;20096;-76
2023/10/14 07:26:14;;;;;;;11.35;3.60;;;;;;;16.72;48.36;101087.72;10335325;28;20478;-76
2023/10/14 07:31:15;;;;;;;15.70;4.13;;;;;;;16.94;47.31;101036.78;10335842;28;20073;-76
2023/10/14 07:36:16;;;;;;;13.60;4.13;;;;;;;17.02;47.21;101029.41;10334513;28;20533;-76
2023/10/14 07:41:18;;;;;;;12.48;2.92;;;;;;;17.54;46.10;101070.28;10349781;28;20046;-76
2023/10/14 07:46:19;;;;;;;5.57;3.03;;;;;;;17.64;44.39;101024.25;10334987;28;20050;-75
2023/10/14 07:51:21;;;;;;;9.05;3.42;;;;;;;18.04;43.81;101062.97;10332518;28;20038;-77
2023/10/14 07:56:23;;;;;;;11.77;3.13;;;;;;;18.47;42.67;101070.78;10332387;28;20116;-72
2023/10/14 08:01:25;;;;;;;18.15;2.90;;;;;;;18.32;42.25;101059.38;10334089;28;20061;-72
2023/10/14 08:06:26;;;;;;;9.40;3.00;;;;;;;17.90;41.35;100961.78;10364026;28;20057;-71
2023/10/14 08:11:33;;;;;;;18.50;3.45;;;;;;;18.76;41.82;101053.50;10373368;28;20041;-72
2023/10/14 08:16:37;;;;;;;6.38;2.70;;;;;;;18.94;40.32;101034.06;10370305;28;20046;-72
2023/10/14 08:21:38;;;;;;;11.27;2.97;;;;;;;19.03;40.35;101007.78;10352567;28;20510;-72
2023/10/14 08:26:40;;;;;;;18.92;3.00;;;;;;;19.49;39.20;101041.91;10372683;28;20049;-73
2023/10/14 08:31:42;;;;;;;7.82;2.78;;;;;;;19.38;38.28;100993.03;10344212;28;20049;-72
2023/10/14 08:36:43;;;;;;;5.15;2.08;;;;;;;19.77;36.46;101022.78;10332730;28;20513;-71
2023/10/14 08:41:48;;;;;;;11.00;2.33;;;;;;;19.69;35.02;101015.78;10332213;28;20069;-71
2023/10/14 08:46:49;;;;;;;13.35;3.30;;;;;;;20.13;36.20;101030.31;10337162;28;20168;-71
2023/10/14 08:51:52;;;;;;;14.00;3.10;;;;;;;20.22;36.32;101003.94;10364444;28;20128;-73
2023/10/14 08:56:53;;;;;;;8.37;3.07;;;;;;;20.47;35.54;101012.13;10373149;28;20045;-72
2023/10/14 09:01:56;;;;;;;19.90;3.80;;;;;;;20.22;35.05;100969.72;10372086;28;20283;-71
2023/10/14 09:07:02;;;;;;;13.75;3.38;;;;;;;20.49;34.68;100991.97;10371443;28;20056;-72
2023/10/14 09:12:13;;;;;;;16.13;4.20;;;;;;;20.65;34.33;101004.13;10358453;28;20462;-72
2023/10/14 09:17:15;;;;;;;13.85;3.28;;;;;;;20.89;35.03;100993.56;10327689;28;20042;-72
2023/10/14 09:22:33;;;;;;;9.90;3.45;;;;;;;21.08;33.64;100979.06;10334013;28;20049;-72
2023/10/14 09:27:34;;;;;;;12.38;3.88;;;;;;;21.18;34.69;100976.69;10338424;28;20046;-72
2023/10/14 09:32:35;;;;;;;7.18;3.30;;;;;;;21.36;34.22;100973.22;10339483;28;20108;-75
2023/10/14 09:37:39;;;;;;;7.70;3.20;;;;;;;20.92;33.72;100894.03;10339669;28;20043;-75
2023/10/14 09:42:44;;;;;;;8.40;3.03;;;;;;;21.53;32.94;100972.59;10333640;28;20044;-75
2023/10/14 09:47:45;;;;;;;13.10;3.28;;;;;;;21.42;32.19;100955.28;10324672;28;20078;-77
2023/10/14 09:52:52;;;;;;;9.07;3.08;;;;;;;21.25;32.55;100916.34;10322527;28;20062;-75
2023/10/14 09:57:53;;;;;;;7.38;2.60;;;;;;;21.54;31.98;100944.50;10332083;28;20045;-75
2023/10/14 10:02:55;;;;;;;7.93;2.90;;;;;;;21.40;32.09;100951.97;10336414;28;20117;-75
2023/10/14 10:08:31;;;;;;;16.88;3.33;;;;;;;21.70;32.36;100951.22;10336933;28;20053;-75
2023/10/14 10:13:35;;;;;;;10.02;2.72;;;;;;;21.84;31.65;100942.72;10350472;28;20050;-75
2023/10/14 10:18:56;;;;;;;6.50;1.88;;;;;;;21.56;29.51;100891.88;10339776;28;20506;-75
2023/10/14 10:24:24;;;;;;;4.95;2.40;;;;;;;21.94;29.39;100952.16;10337331;28;20552;-76
2023/10/14 10:29:25;;;;;;;17.48;2.47;;;;;;;21.74;29.69;100928.88;10331900;28;20050;-75
2023/10/14 10:34:26;;;;;;;4.88;2.00;;;;;;;21.99;29.46;100938.78;10336295;28;20042;-75
2023/10/14 10:39:27;;;;;;;4.28;2.00;;;;;;;21.88;28.56;100932.25;10325215;28;20442;-73
2023/10/14 10:44:33;;;;;;;8.93;2.33;;;;;;;21.73;28.08;100926.41;10304406;28;20043;-75
2023/10/14 10:49:49;;;;;;;5.07;2.10;;;;;;;21.80;26.98;100925.25;10321638;28;20049;-75
2023/10/14 10:54:51;;;;;;;8.60;2.70;;;;;;;21.74;28.73;100917.25;10317972;28;20066;-78
2023/10/14 10:59:55;;;;;;;9.93;2.47;;;;;;;21.78;28.57;100926.56;10326101;28;20172;-77
2023/10/14 11:04:57;;;;;;;5.20;2.08;;;;;;;21.64;28.36;100893.47;10335049;28;20192;-76
2023/10/14 11:09:58;;;;;;;5.93;2.42;;;;;;;21.76;28.16;100913.25;10336213;28;20042;-76
2023/10/14 11:14:59;;;;;;;8.18;2.95;;;;;;;21.84;28.08;100904.84;10335577;28;20034;-79
2023/10/14 11:20:00;;;;;;;18.95;5.63;;;;;;;21.68;27.75;100891.13;10336468;28;20050;-78
2023/10/14 11:25:02;;;;;;;13.18;2.72;;;;;;;21.74;27.38;100901.84;10334774;28;20387;-81
2023/10/14 11:30:06;;;;;;;26.17;3.22;;;;;;;21.46;27.57;100866.44;10335465;28;20619;-77
2023/10/14 11:35:07;;;;;;;9.50;2.22;;;;;;;21.64;27.74;100899.69;10334691;28;20070;-76
2023/10/14 11:40:13;;;;;;;12.80;2.13;;;;;;;21.31;26.94;100850.59;10334452;28;20042;-76
2023/10/14 11:45:17;;;;;;;39.30;14.15;;;;;;;21.43;27.21;100871.25;10333729;28;20050;-76
2023/10/14 11:50:19;;;;;;;27.77;3.70;;;;;;;21.29;26.80;100837.28;10333922;28;20038;-76
2023/10/14 11:55:20;;;;;;;11.73;2.40;;;;;;;21.56;26.98;100891.06;10334636;28;20050;-74
2023/10/14 12:00:21;;;;;;;61.30;4.80;;;;;;;21.33;27.55;100876.34;10332632;28;20047;-75
2023/10/14 12:05:22;;;;;;;28.33;3.15;;;;;;;21.28;27.53;100880.78;10333913;28;20513;-75
2023/10/14 12:10:26;;;;;;;7.90;1.85;;;;;;;21.36;27.45;100886.75;10333196;28;20125;-78
2023/10/14 12:15:28;;;;;;;23.60;7.10;;;;;;;21.12;27.21;100852.47;10334320;28;20049;-78
2023/10/14 12:20:31;;;;;;;63.22;4.57;;;;;;;21.27;27.25;100874.56;10332948;28;20042;-80
2023/10/14 12:25:32;;;;;;;11.10;2.42;;;;;;;21.11;28.00;100869.72;10332593;28;20042;-81
2023/10/14 12:30:40;;;;;;;8.50;2.00;;;;;;;20.80;27.85;100844.50;10332759;28;20101;-82
2023/10/14 12:35:41;;;;;;;5.72;2.03;;;;;;;21.00;27.72;100897.47;10332476;28;20528;-73
2023/10/14 12:40:45;;;;;;;12.07;2.13;;;;;;;20.51;28.24;100827.91;10332730;28;20129;-76
2023/10/14 12:45:51;;;;;;;19.98;2.95;;;;;;;20.74;28.91;100881.31;10332599;28;20042;-75
2023/10/14 12:50:52;;;;;;;13.95;2.38;;;;;;;20.76;28.57;100889.22;10333175;28;20065;-77
2023/10/14 12:55:53;;;;;;;20.80;2.40;;;;;;;20.53;28.88;100865.53;10332313;28;20082;-77
2023/10/14 13:00:53;;;;;;;9.27;2.60;;;;;;;20.46;28.79;100859.31;10331360;28;20414;-77
2023/10/14 13:05:55;;;;;;;9.13;2.22;;;;;;;20.35;28.88;100868.97;10329996;28;20461;-76
2023/10/14 13:10:56;;;;;;;11.18;3.00;;;;;;;20.10;29.33;100855.44;10328032;28;20046;-77
2023/10/14 13:15:57;;;;;;;10.55;2.55;;;;;;;19.96;29.30;100849.31;10344054;28;20034;-76
2023/10/14 13:20:59;;;;;;;6.63;2.13;;;;;;;20.03;28.97;100860.88;10366422;28;20050;-79
2023/10/14 13:26:00;;;;;;;19.63;2.88;;;;;;;19.82;30.42;100847.75;10330072;28;20125;-76
2023/10/14 13:31:01;;;;;;;8.77;2.50;;;;;;;19.84;30.14;100862.66;10330674;28;20044;-78
2023/10/14 13:36:02;;;;;;;29.50;3.47;;;;;;;19.65;30.94;100865.47;10331301;28;20045;-80
2023/10/14 13:41:03;;;;;;;33.95;3.20;;;;;;;19.01;31.44;100803.31;10331091;28;20055;-80
2023/10/14 13:46:04;;;;;;;10.73;2.28;;;;;;;19.05;31.40;100841.41;10331553;28;20049;-80
2023/10/14 13:51:05;;;;;;;87.63;5.85;;;;;;;18.59;32.47;100810.03;10330576;28;20054;-79
2023/10/14 13:56:10;;;;;;;79.88;5.43;;;;;;;18.21;33.98;100834.88;10331149;28;20077;-78
2023/10/14 14:01:11;;;;;;;76.57;6.32;;;;;;;17.67;35.39;100796.31;10330875;28;20050;-79
2023/10/14 14:06:12;;;;;;;89.28;7.45;;;;;;;17.73;36.41;100865.34;10324308;28;20049;-77
2023/10/14 14:11:13;;;;;;;71.60;6.47;;;;;;;17.46;36.80;100868.97;10325989;28;20046;-77
2023/10/14 14:16:14;;;;;;;62.92;6.25;;;;;;;17.04;38.42;100876.22;10318807;28;20088;-78
2023/10/14 14:21:18;;;;;;;74.55;6.53;;;;;;;16.19;41.22;100817.19;10315444;28;20038;-82
2023/10/14 14:26:18;;;;;;;72.15;6.10;;;;;;;15.80;41.17;100804.25;10352299;28;20038;-79
2023/10/14 14:31:20;;;;;;;82.78;6.90;;;;;;;15.40;43.02;100801.09;10334963;28;20041;-77
2023/10/14 14:36:22;;;;;;;37.22;4.68;;;;;;;15.53;43.77;100878.09;10348227;28;20049;-78
2023/10/14 14:41:25;;;;;;;84.38;6.72;;;;;;;14.77;44.64;100816.75;10349518;28;20563;-86
2023/10/14 14:46:27;;;;;;;84.55;6.75;;;;;;;14.84;45.82;100886.41;10344241;28;20038;-85
2023/10/14 14:51:29;;;;;;;59.30;5.40;;;;;;;14.50;46.91;100884.16;10369217;28;20120;-83
2023/10/14 14:56:30;;;;;;;48.38;6.25;;;;;;;14.28;47.20;100891.22;10342630;28;20100;-85
2023/10/14 15:01:31;;;;;;;67.45;6.90;;;;;;;13.72;48.34;100845.19;10349930;28;20103;-82
2023/10/14 15:06:32;;;;;;;43.85;5.85;;;;;;;13.87;48.87;100896.81;10338124;28;20061;-82
2023/10/14 15:11:32;;;;;;;35.90;6.55;;;;;;;13.33;49.68;100844.19;10353231;28;20056;-81
2023/10/14 15:16:37;;;;;;;51.72;7.13;;;;;;;13.36;49.99;100857.19;10354217;28;20047;-80
2023/10/14 15:21:38;;;;;;;39.35;5.28;;;;;;;13.26;50.20;100856.59;10337586;28;20038;-80
2023/10/14 15:26:38;;;;;;;34.53;4.97;;;;;;;13.16;51.00;100870.09;10336005;28;20050;-80
2023/10/14 15:31:39;;;;;;;38.35;5.03;;;;;;;13.24;50.72;100899.41;10363898;28;20048;-83
2023/10/14 15:36:43;;;;;;;15.35;4.63;;;;;;;12.99;50.82;100877.31;10335238;28;20046;-84
2023/10/14 15:41:47;;;;;;;26.95;4.30;;;;;;;13.03;51.15;100893.81;10367739;28;20042;-76
2023/10/14 15:46:47;;;;;;;26.27;4.70;;;;;;;12.96;50.98;100895.50;10340306;28;20037;-76
2023/10/14 15:51:51;;;;;;;27.15;4.22;;;;;;;12.73;50.67;100888.19;10332838;28;20050;-76
2023/10/14 15:56:52;;;;;;;28.42;3.95;;;;;;;12.26;51.09;100824.94;10334267;28;20498;-76
2023/10/14 16:01:53;;;;;;;19.80;3.75;;;;;;;12.42;51.35;100866.75;10334267;28;20041;-77
2023/10/14 16:06:55;;;;;;;17.45;3.63;;;;;;;12.21;52.13;100855.75;10333057;28;20614;-76
2023/10/14 16:11:56;;;;;;;27.40;4.00;;;;;;;12.08;52.64;100859.75;10351706;28;20133;-76
2023/10/14 16:16:57;;;;;;;16.80;3.90;;;;;;;11.89;52.79;100849.38;10373187;28;20164;-77
2023/10/14 16:21:58;;;;;;;26.17;4.22;;;;;;;11.55;52.93;100809.56;10369572;28;20088;-75
2023/10/14 16:27:00;;;;;;;34.50;4.10;;;;;;;11.69;53.46;100856.78;10357758;28;20042;-85
2023/10/14 16:32:05;;;;;;;32.97;4.68;;;;;;;11.60;53.66;100847.94;10326890;28;20540;-80
2023/10/14 16:37:07;;;;;;;16.95;4.35;;;;;;;11.81;54.25;100903.41;10338144;28;20418;-82
2023/10/14 16:42:07;;;;;;;18.92;8.20;;;;;;;11.82;53.73;100913.06;10333919;28;20407;-93
2023/10/14 16:47:10;;;;;;;22.08;8.80;;;;;;;11.84;53.33;100897.75;10347388;28;20045;-74
2023/10/14 16:52:17;;;;;;;32.20;12.93;;;;;;;11.92;52.84;100894.31;10332512;28;20141;-77
2023/10/14 16:57:20;;;;;;;43.80;17.63;;;;;;;11.49;52.21;100829.66;10331909;28;20064;-76
2023/10/14 17:02:21;;;;;;;57.00;19.27;;;;;;;11.86;52.71;100898.47;10331845;28;20066;-77
2023/10/14 17:07:25;;;;;;;74.63;21.13;;;;;;;11.57;52.56;100866.06;10349041;28;20131;-83
2023/10/14 17:12:28;;;;;;;68.78;23.73;;;;;;;11.26;52.84;100828.56;10371934;28;20046;-84
2023/10/14 17:17:29;;;;;;;126.10;30.65;;;;;;;11.56;53.14;100886.53;10362435;28;20049;-82
2023/10/14 17:22:30;;;;;;;86.03;30.13;;;;;;;11.59;53.34;100896.84;10331722;28;20124;-80
2023/10/14 17:27:30;;;;;;;87.72;29.52;;;;;;;11.23;52.40;100836.88;10329337;28;20070;-82
2023/10/14 17:32:31;;;;;;;77.85;28.52;;;;;;;11.57;52.66;100892.69;10333576;28;20093;-78
2023/10/14 17:37:32;;;;;;;166.82;70.80;;;;;;;11.13;52.30;100813.91;10349417;28;20042;-76
2023/10/14 17:42:33;;;;;;;150.40;60.50;;;;;;;11.20;51.95;100822.06;10349421;28;20101;-80
2023/10/14 17:47:33;;;;;;;138.43;60.03;;;;;;;11.17;52.17;100817.06;10322361;28;20095;-80
2023/10/14 17:52:34;;;;;;;120.50;45.58;;;;;;;11.23;52.59;100829.72;10339510;28;20068;-80
2023/10/14 17:57:42;;;;;;;67.88;25.20;;;;;;;11.41;51.76;100851.72;10348205;28;20140;-80
2023/10/14 18:02:44;;;;;;;67.85;25.75;;;;;;;11.13;52.06;100835.19;10352785;28;20065;-80
2023/10/14 18:07:45;;;;;;;51.10;19.52;;;;;;;10.72;52.79;100779.16;10368025;28;20042;-80
2023/10/14 18:12:45;;;;;;;54.60;19.15;;;;;;;11.14;53.43;100878.53;10363661;28;20050;-81
2023/10/14 18:17:47;;;;;;;40.13;15.18;;;;;;;10.93;53.96;100847.88;10344103;28;20552;-82
2023/10/14 18:22:51;;;;;;;29.95;12.27;;;;;;;10.90;54.68;100863.28;10337204;28;20066;-83
2023/10/14 18:27:52;;;;;;;26.73;8.40;;;;;;;10.38;55.11;100792.41;10334246;28;20046;-83
2023/10/14 18:32:56;;;;;;;22.80;6.20;;;;;;;10.69;55.81;100858.34;10333621;28;20053;-83
2023/10/14 18:37:58;;;;;;;20.05;5.80;;;;;;;10.66;55.52;100851.53;10336823;28;20046;-81
2023/10/14 18:43:04;;;;;;;19.55;4.82;;;;;;;10.32;56.62;100793.03;10337506;28;20414;-81
2023/10/14 18:48:09;;;;;;;18.75;4.03;;;;;;;10.48;56.83;100830.31;10336510;28;20035;-83
2023/10/14 18:53:10;;;;;;;;;;;;;;;10.66;57.39;100840.06;10336312;28;20062;-80
2023/10/14 18:58:11;;;;;;;13.13;4.18;;;;;;;9.99;56.76;100802.50;10334541;28;20406;-79
2023/10/14 19:03:13;;;;;;;18.15;4.82;;;;;;;9.26;57.58;100704.53;10335477;28;20104;-81
2023/10/14 19:08:14;;;;;;;11.32;4.30;;;;;;;9.73;58.89;100821.84;10335214;28;20138;-81
2023/10/14 19:13:19;;;;;;;14.02;4.25;;;;;;;9.64;59.15;100836.03;10336303;28;20046;-81
2023/10/14 19:18:19;;;;;;;;;;;;;;;9.70;59.65;100838.06;10336689;28;20556;-81
2023/10/14 19:23:28;;;;;;;9.73;4.07;;;;;;;9.20;59.91;100846.44;10335185;28;19933;-80
2023/10/14 19:28:29;;;;;;;14.45;6.40;;;;;;;9.01;60.78;100838.59;10330931;28;20050;-81
2023/10/14 19:33:31;;;;;;;47.95;25.55;;;;;;;8.34;61.72;100755.69;10334638;28;20038;-80
2023/10/14 19:38:32;;;;;;;53.67;35.10;;;;;;;8.31;62.77;100769.22;10334398;28;20046;-81
2023/10/14 19:43:33;;;;;;;81.28;43.97;;;;;;;8.03;63.12;100747.13;10333242;28;20422;-80
2023/10/14 19:48:35;;;;;;;63.20;40.88;;;;;;;8.35;63.85;100811.16;10334096;28;20046;-80
2023/10/14 19:53:36;;;;;;;58.88;31.00;;;;;;;7.89;64.55;100761.59;10331165;28;20066;-83
2023/10/14 19:58:37;;;;;;;40.60;21.23;;;;;;;7.83;64.40;100767.47;10332901;28;20042;-80
2023/10/14 20:03:38;;;;;;;31.42;18.52;;;;;;;7.99;65.50;100804.78;10333727;28;20047;-80
2023/10/14 20:08:39;;;;;;;35.78;18.63;;;;;;;7.82;66.06;100782.50;10333748;28;20053;-79
2023/10/14 20:13:39;;;;;;;49.97;17.10;;;;;;;7.70;66.88;100795.03;10332129;28;20038;-83
2023/10/14 20:18:40;;;;;;;34.08;14.90;;;;;;;7.32;67.08;100730.56;10333291;28;20099;-84
2023/10/14 20:23:42;;;;;;;34.00;14.60;;;;;;;7.28;67.58;100717.78;10333049;28;20057;-82
2023/10/14 20:28:43;;;;;;;19.55;9.68;;;;;;;7.66;68.44;100804.22;10332178;28;20129;-83
2023/10/14 20:33:44;;;;;;;24.00;13.85;;;;;;;7.24;68.70;100741.00;10331744;28;20050;-83
2023/10/14 20:38:45;;;;;;;19.00;11.77;;;;;;;7.53;69.56;100793.06;10332919;28;20042;-83
2023/10/14 20:43:45;;;;;;;16.55;9.50;;;;;;;7.02;69.72;100730.66;10330536;28;20510;-82
2023/10/14 20:48:49;;;;;;;18.27;9.48;;;;;;;6.99;69.49;100744.13;10332351;28;20038;-83
2023/10/14 20:53:50;;;;;;;20.40;7.17;;;;;;;7.04;69.92;100777.09;10327796;28;20069;-82
2023/10/14 20:58:51;;;;;;;17.45;6.95;;;;;;;7.03;70.38;100758.72;10331767;28;20049;-82
2023/10/14 21:03:54;;;;;;;11.18;5.75;;;;;;;6.66;70.33;100709.13;10331683;28;20042;-82
2023/10/14 21:08:56;;;;;;;13.95;5.10;;;;;;;6.89;71.09;100769.69;10332146;28;20045;-80
2023/10/14 21:13:57;;;;;;;11.70;4.80;;;;;;;6.86;71.58;100760.22;10332439;28;20081;-80
2023/10/14 21:18:57;;;;;;;12.25;5.38;;;;;;;6.97;71.79;100767.19;10346608;28;20066;-81
2023/10/14 21:23:59;;;;;;;29.90;6.60;;;;;;;6.95;71.94;100782.34;10329315;28;20081;-80
2023/10/14 21:29:01;;;;;;;14.27;4.28;;;;;;;6.58;71.46;100732.72;10330603;28;20042;-80
2023/10/14 21:34:05;;;;;;;11.55;3.60;;;;;;;6.52;71.59;100731.47;10331015;28;20047;-80
2023/10/14 21:39:06;;;;;;;41.38;5.90;;;;;;;6.16;72.77;100672.97;10331514;28;20089;-82
2023/10/14 21:44:07;;;;;;;19.27;3.72;;;;;;;6.24;72.91;100696.03;10331259;28;20137;-81
2023/10/14 21:49:08;;;;;;;15.18;3.88;;;;;;;6.38;73.19;100708.06;10330761;28;20069;-82
2023/10/14 21:54:09;;;;;;;18.13;6.13;;;;;;;6.22;73.55;100699.78;10331314;28;20058;-81
2023/10/14 21:59:09;;;;;;;19.52;8.48;;;;;;;6.48;73.79;100743.25;10331283;28;20053;-81
2023/10/14 22:04:14;;;;;;;12.57;7.00;;;;;;;5.84;73.87;100659.03;10347129;28;20080;-83
2023/10/14 22:09:17;;;;;;;14.18;6.30;;;;;;;6.07;73.68;100686.94;10330906;28;20053;-82
2023/10/14 22:14:17;;;;;;;17.45;6.30;;;;;;;6.02;73.64;100710.22;10330841;28;20057;-82
2023/10/14 22:19:18;;;;;;;18.08;8.38;;;;;;;6.20;74.37;100742.13;10345301;28;20038;-81
2023/10/14 22:24:19;;;;;;;13.80;8.55;;;;;;;6.21;74.22;100746.44;10330216;28;20096;-82
2023/10/14 22:29:20;;;;;;;26.80;13.18;;;;;;;6.05;74.64;100727.59;10330187;28;20034;-81
2023/10/14 22:34:25;;;;;;;20.98;12.10;;;;;;;6.24;74.80;100748.81;10337721;28;20056;-81
2023/10/14 22:39:27;;;;;;;30.77;12.40;;;;;;;6.05;74.54;100730.25;10337697;28;20074;-81
2023/10/14 22:44:28;;;;;;;19.80;11.57;;;;;;;5.98;74.47;100737.81;10337319;28;20050;-81
2023/10/14 22:49:29;;;;;;;20.35;10.75;;;;;;;5.69;75.08;100684.88;10335167;28;20039;-82
2023/10/14 22:54:29;;;;;;;17.45;9.63;;;;;;;5.80;75.58;100711.16;10336282;28;20070;-82
2023/10/14 22:59:30;;;;;;;15.00;7.65;;;;;;;5.40;75.80;100664.41;10336859;28;20041;-83
2023/10/14 23:04:32;;;;;;;13.55;6.70;;;;;;;5.26;75.99;100662.91;10336541;28;20498;-83
2023/10/14 23:09:33;;;;;;;8.57;4.78;;;;;;;5.69;76.13;100729.69;10336847;28;20069;-84
2023/10/14 23:14:34;;;;;;;11.43;3.90;;;;;;;4.67;76.16;100568.59;10336122;28;20105;-82
2023/10/14 23:19:34;;;;;;;8.90;2.75;;;;;;;5.42;77.23;100712.53;10335474;28;20085;-82
2023/10/14 23:24:35;;;;;;;12.57;3.63;;;;;;;5.52;77.45;100738.97;10335247;28;20050;-82
2023/10/14 23:29:36;;;;;;;10.05;4.10;;;;;;;5.32;77.39;100708.13;10336744;28;20589;-82
2023/10/14 23:34:39;;;;;;;8.13;3.20;;;;;;;5.29;76.86;100706.59;10335312;28;20138;-82
2023/10/14 23:39:40;;;;;;;11.48;3.92;;;;;;;5.19;78.15;100705.66;10335819;28;20049;-81
2023/10/14 23:44:41;;;;;;;14.30;4.00;;;;;;;5.01;78.45;100677.22;10335189;28;20053;-81